Airfield :
LOGIN :

Register | Disclaimer

   EN    FR    IT 

 










Legend :    VFR   Marginal VFR   IFR   Intensive IFR   Very Intensive IFR
Visi :
Ceiling :
>= 8 km
>= 3000ft
5 to 8 km
1000 to 3000 ft
1500m to 5 km
500 to 1000 ft
800 to 1500m
200 to 500 ft
< 800m
< 200 ft
Symbols :   Thunderstorms  Fog  Heavy snow  Heavy precipitations  Wind > 20 kt
SIGMETs :     Misc.  Thunderstorms  Icing  Turbulence  Mountain Waves  Volcanic Ashes






- Airport Elevation : 157 ft
- IATA code : LIL


LFQQ - Lille Lesquin

CURRENT METAR :
  • 200400Z AUTO 11003KT CAVOK M01/M02 Q1017 TEMPO 0500 FG VV///

EXPIRED METARs :
  • 200330Z AUTO 10003KT CAVOK M01/M01 Q1017 TEMPO 0500 FG VV///
  • 200300Z AUTO 12005KT 9000 NSC M01/M01 Q1017 BECMG 3000 BR
  • 200230Z AUTO 11003KT 6000 NSC M01/M01 Q1017 BECMG 3000 BR
  • 200200Z AUTO 10003KT 7000 FEW045 00/M00 Q1018 BECMG 3000 BR
  • 200130Z AUTO 11004KT 7000 BKN046 01/M00 Q1018

TAF TAF LFQQ
Valid from the 20 at 00:00 until the 21 at 06:00 UTC


192300Z 2000/2106 VRB03KT 7000 SCT035
BECMG 2000/2004 3000 BR
PROB30
TEMPO 2005/2010 0500 FG VV///
BECMG 2010/2012 14010KT 9999 NSW
BECMG 2021/2024 4000 BR
BECMG 2100/2103 OVC007
ATIS : +33 3 20 16 19 54



MET'MAP, your aeronautical weather chart ! - Copyright ORBIFLY December 2007 - Disclaimer

ORBIFLY MET'MAP TEAM :

Programming & Development : Alexandra Zaïnal
Concept & Development : Baudouin d'Aumeries
Co-Development & Prog : Marc-Olivier Méhu
Technical & hardware support : Manuel Goepfert

Contact : metmap@orbifly.com




SOURCES & CREDITS :

   NOAA